Time;durP1;ratioP1;P1;durP2;ratioP2;P2;SDS_P1;SDS_P2;PMS_P1;PMS_P2;Temp;Humidity;BMP_temperature;BMP_pressure;BME280_temperature;BME280_humidity;BME280_pressure;Samples;Min_cycle;Max_cycle;Signal;HPM_P1;HPM_P2
2023/07/10 04:30:28;;;;;;;;;5.00;4.50;;;;;29.11;41.41;101817.38;5049618;27;45706;-76
2023/07/10 04:32:53;;;;;;;;;5.50;5.50;;;;;29.21;41.70;101811.72;5013816;28;45403;-75
2023/07/10 04:35:19;;;;;;;;;4.75;4.75;;;;;29.18;40.88;101814.81;5014485;28;45217;-77
2023/07/10 04:37:44;;;;;;;;;3.00;1.75;;;;;29.29;40.87;101818.16;4994243;28;45368;-78
2023/07/10 04:40:10;;;;;;;;;4.75;4.75;;;;;29.21;40.85;101793.25;4994516;28;45459;-76
2023/07/10 04:42:35;;;;;;;;;4.50;4.00;;;;;29.25;40.78;101819.53;4994940;28;45234;-75
2023/07/10 04:45:00;;;;;;;;;5.00;3.50;;;;;29.03;40.61;101817.34;5007997;28;45927;-77
2023/07/10 04:47:26;;;;;;;;;5.50;4.00;;;;;29.05;40.86;101819.94;4996692;28;49937;-76
2023/07/10 04:49:51;;;;;;;;;2.75;2.75;;;;;29.02;40.85;101818.38;5014172;28;45192;-74
2023/07/10 04:52:16;;;;;;;;;1.00;1.00;;;;;29.03;40.70;101819.22;4995612;28;51772;-76
2023/07/10 04:54:42;;;;;;;;;3.75;3.75;;;;;29.05;40.35;101825.47;4993028;28;45365;-77
2023/07/10 04:57:07;;;;;;;;;4.25;4.25;;;;;29.02;40.17;101829.41;4994715;28;45572;-76
2023/07/10 04:59:37;;;;;;;;;4.50;3.50;;;;;29.04;40.41;101818.22;5013581;28;46137;-77
2023/07/10 05:02:04;;;;;;;;;3.00;3.00;;;;;29.10;40.48;101828.59;5013962;28;45493;-77
2023/07/10 05:04:29;;;;;;;;;5.50;3.00;;;;;29.12;39.84;101816.34;5013926;28;45362;-78
2023/07/10 05:06:58;;;;;;;;;2.25;2.25;;;;;29.28;40.23;101826.59;5014489;28;45359;-78
2023/07/10 05:09:24;;;;;;;;;3.50;3.50;;;;;29.26;39.47;101832.28;5014331;28;47015;-79
2023/07/10 05:11:52;;;;;;;;;4.50;3.00;;;;;29.20;40.17;101826.56;4996912;28;45475;-78
2023/07/10 05:14:17;;;;;;;;;3.25;3.25;;;;;29.20;39.55;101827.44;5014388;28;45336;-80
2023/07/10 05:16:42;;;;;;;;;3.00;3.00;;;;;29.21;39.83;101826.41;5014832;28;45320;-76
2023/07/10 05:19:08;;;;;;;;;4.25;2.50;;;;;29.28;39.69;101823.84;5014081;28;45454;-80
2023/07/10 05:21:33;;;;;;;;;4.75;3.00;;;;;29.30;39.86;101830.94;4996310;28;45452;-76
2023/07/10 05:23:58;;;;;;;;;4.50;3.00;;;;;29.22;39.71;101817.09;5014514;28;45309;-78
2023/07/10 05:26:24;;;;;;;;;2.50;2.50;;;;;29.18;40.04;101832.25;5014218;28;45387;-78
2023/07/10 05:28:49;;;;;;;;;3.00;3.00;;;;;29.19;39.60;101834.00;5013429;28;46418;-78
2023/07/10 05:31:14;;;;;;;;;4.00;4.00;;;;;29.19;40.10;101819.31;5015980;28;45423;-78
2023/07/10 05:33:40;;;;;;;;;3.75;3.00;;;;;29.39;39.81;101825.47;5017606;28;45439;-76
2023/07/10 05:36:10;;;;;;;;;3.25;3.25;;;;;29.35;39.73;101830.44;4999195;28;46880;-77
2023/07/10 05:38:35;;;;;;;;;2.25;2.25;;;;;29.40;39.29;101821.69;5016631;28;45470;-77
2023/07/10 05:41:02;;;;;;;;;4.50;4.00;;;;;29.51;39.53;101824.16;5017278;28;45338;-77
2023/07/10 05:43:32;;;;;;;;;3.50;2.50;;;;;29.59;39.39;101822.28;5017209;28;45437;-77
2023/07/10 05:46:02;;;;;;;;;3.00;3.00;;;;;29.85;39.02;101821.31;5016876;28;45621;-77
2023/07/10 05:48:28;;;;;;;;;2.50;2.50;;;;;29.80;38.95;101834.75;5017295;28;45404;-76
2023/07/10 05:50:55;;;;;;;;;3.25;3.25;;;;;29.75;39.15;101831.66;5017161;28;45315;-77
2023/07/10 05:53:20;;;;;;;;;3.25;3.25;;;;;29.65;39.35;101829.91;5017144;28;45470;-76
2023/07/10 05:55:48;;;;;;;;;3.00;3.00;;;;;29.46;38.84;101824.66;5016861;28;45600;-80
2023/07/10 05:58:14;;;;;;;;;3.25;3.25;;;;;29.49;39.08;101823.47;5016563;28;46300;-76
2023/07/10 06:00:41;;;;;;;;;2.25;2.25;;;;;29.50;39.09;101834.34;4999064;28;45610;-77
2023/07/10 06:03:06;;;;;;;;;4.00;4.00;;;;;29.43;39.52;101825.00;5016647;28;45391;-77
2023/07/10 06:05:32;;;;;;;;;6.25;3.25;;;;;29.38;39.55;101821.84;5016654;28;45462;-78
2023/07/10 06:08:00;;;;;;;;;5.00;3.75;;;;;29.48;39.07;101824.47;5016463;28;45364;-76
2023/07/10 06:10:25;;;;;;;;;4.00;4.00;;;;;29.44;39.68;101832.22;5016934;28;45437;-77
2023/07/10 06:12:51;;;;;;;;;4.25;3.75;;;;;29.43;39.05;101829.66;5016378;28;49189;-79
2023/07/10 06:15:16;;;;;;;;;4.25;4.25;;;;;29.53;39.35;101833.13;5016672;28;45436;-77
2023/07/10 06:17:42;;;;;;;;;4.00;4.00;;;;;29.40;39.26;101818.94;4998430;28;45631;-78
2023/07/10 06:20:08;;;;;;;;;5.25;3.50;;;;;29.34;39.77;101828.72;5016760;28;45254;-75
2023/07/10 06:22:33;;;;;;;;;3.25;3.25;;;;;29.33;39.48;101836.16;5016427;28;45396;-75
2023/07/10 06:24:58;;;;;;;;;3.50;1.75;;;;;29.40;39.20;101833.63;5017051;28;45384;-77
2023/07/10 06:27:24;;;;;;;;;3.50;3.50;;;;;29.38;39.38;101835.66;5017410;28;46023;-75
2023/07/10 06:29:51;;;;;;;;;3.00;3.00;;;;;29.29;39.69;101831.97;5018787;28;45503;-76
2023/07/10 06:32:17;;;;;;;;;4.75;3.50;;;;;29.29;40.21;101833.88;5016589;28;45365;-78
2023/07/10 06:34:42;;;;;;;;;3.50;3.50;;;;;29.18;39.54;101801.88;5016656;28;45529;-78
2023/07/10 06:37:07;;;;;;;;;3.75;3.00;;;;;29.49;39.54;101824.31;5016378;28;46179;-74
2023/07/10 06:39:33;;;;;;;;;3.50;2.75;;;;;29.59;39.21;101829.72;5016081;28;46439;-76
2023/07/10 06:41:58;;;;;;;;;6.00;4.50;;;;;29.68;39.41;101828.72;5016174;28;45458;-87
2023/07/10 06:44:24;;;;;;;;;4.25;2.75;;;;;29.72;39.09;101833.72;5016278;28;45574;-78
2023/07/10 06:46:49;;;;;;;;;4.00;3.50;;;;;29.74;38.65;101822.50;5015824;28;46492;-78
2023/07/10 06:49:14;;;;;;;;;5.00;3.50;;;;;29.80;39.26;101827.34;5016393;28;45360;-76
2023/07/10 06:51:39;;;;;;;;;4.00;4.00;;;;;29.79;38.62;101820.06;5016142;28;45541;-78
2023/07/10 06:54:05;;;;;;;;;2.25;1.00;;;;;29.76;38.96;101823.19;5010694;28;45634;-79
2023/07/10 06:56:31;;;;;;;;;7.75;3.75;;;;;29.82;38.60;101821.66;5014880;28;45339;-79
2023/07/10 06:58:56;;;;;;;;;4.00;2.00;;;;;29.81;38.95;101820.78;5015396;28;45407;-77
2023/07/10 07:01:21;;;;;;;;;5.00;3.25;;;;;29.72;38.88;101819.91;5015781;28;45579;-77
2023/07/10 07:03:47;;;;;;;;;5.25;2.25;;;;;29.93;38.54;101826.84;5014212;28;45569;-80
2023/07/10 07:06:12;;;;;;;;;2.50;2.50;;;;;29.88;39.11;101820.94;4997050;28;47119;-78
2023/07/10 07:08:37;;;;;;;;;3.00;2.75;;;;;29.87;38.62;101816.47;4997541;28;45411;-77
2023/07/10 07:11:03;;;;;;;;;3.75;3.50;;;;;29.76;38.65;101828.72;5015579;28;45506;-79
2023/07/10 07:13:28;;;;;;;;;3.50;3.50;;;;;29.79;38.82;101814.53;5015405;28;45547;-76
2023/07/10 07:15:55;;;;;;;;;5.00;3.00;;;;;30.05;38.77;101829.13;5015335;28;45352;-75
2023/07/10 07:18:23;;;;;;;;;3.50;3.00;;;;;30.09;38.75;101810.31;5015100;28;45401;-76
2023/07/10 07:20:49;;;;;;;;;3.75;3.75;;;;;30.40;38.08;101818.78;5015400;28;45427;-76
2023/07/10 07:23:15;;;;;;;;;2.75;2.75;;;;;30.42;37.77;101816.72;5015449;28;45484;-78
2023/07/10 07:25:44;;;;;;;;;2.00;2.00;;;;;30.39;38.24;101806.84;5014260;28;45406;-76
2023/07/10 07:28:10;;;;;;;;;4.50;3.00;;;;;30.48;37.86;101818.78;4999015;28;45430;-78
2023/07/10 07:30:36;;;;;;;;;3.00;3.00;;;;;30.66;37.59;101813.94;5015292;28;45475;-77
2023/07/10 07:33:01;;;;;;;;;3.00;3.00;;;;;30.54;37.63;101815.34;5015279;28;45282;-78
2023/07/10 07:35:28;;;;;;;;;3.75;3.50;;;;;30.50;37.93;101822.25;5014889;28;45378;-78
2023/07/10 07:37:53;;;;;;;;;7.00;3.00;;;;;30.46;37.14;101810.63;5015213;28;45399;-77
2023/07/10 07:40:19;;;;;;;;;4.25;3.00;;;;;30.75;37.13;101807.34;5014915;28;45787;-79
2023/07/10 07:42:46;;;;;;;;;4.00;3.25;;;;;30.57;37.24;101816.91;5014617;28;45280;-77
2023/07/10 07:45:13;;;;;;;;;2.50;1.50;;;;;30.64;36.56;101823.47;5014416;28;46017;-78
2023/07/10 07:47:40;;;;;;;;;2.25;1.75;;;;;30.70;35.95;101807.03;4997428;28;45365;-79
2023/07/10 07:50:06;;;;;;;;;4.25;3.00;;;;;30.72;36.05;101804.06;5014108;28;45601;-77
2023/07/10 07:52:32;;;;;;;;;4.25;3.00;;;;;30.74;35.50;101802.84;5013829;28;45434;-78
2023/07/10 07:54:58;;;;;;;;;4.75;2.50;;;;;30.70;36.17;101800.63;4995715;28;45514;-77
2023/07/10 07:57:23;;;;;;;;;4.25;3.25;;;;;30.75;36.70;101803.72;5014855;28;45497;-77
2023/07/10 07:59:52;;;;;;;;;3.00;2.50;;;;;30.98;36.33;101793.63;5014380;28;45602;-78
2023/07/10 08:02:17;;;;;;;;;3.75;3.75;;;;;31.07;35.31;101800.88;5014773;28;45338;-79
2023/07/10 08:04:44;;;;;;;;;2.25;2.25;;;;;31.00;35.24;101798.97;5014352;28;45347;-77
2023/07/10 08:07:09;;;;;;;;;1.25;1.25;;;;;30.77;33.82;101798.88;5014588;28;45705;-77
2023/07/10 08:09:35;;;;;;;;;1.00;1.00;;;;;30.78;32.62;101795.06;5014387;28;46027;-77
2023/07/10 08:12:00;;;;;;;;;1.25;1.25;;;;;30.92;32.89;101786.03;5014623;28;45524;-77
2023/07/10 08:14:26;;;;;;;;;2.00;2.00;;;;;30.97;33.46;101789.09;5013949;28;46142;-77
2023/07/10 08:16:52;;;;;;;;;1.75;1.75;;;;;30.98;32.69;101787.22;5014712;28;45340;-79
2023/07/10 08:19:17;;;;;;;;;0.75;0.75;;;;;30.82;32.06;101786.22;5014410;28;45491;-80
2023/07/10 08:21:43;;;;;;;;;1.25;1.25;;;;;30.99;33.32;101772.31;5014165;28;45447;-78
2023/07/10 08:24:08;;;;;;;;;0.75;0.75;;;;;30.94;31.96;101785.84;4996343;28;47599;-80
2023/07/10 08:26:34;;;;;;;;;0.00;0.00;;;;;30.93;32.07;101779.44;5014525;28;45434;-78
2023/07/10 08:29:29;;;;;;;;;0.75;0.75;;;;;30.89;32.33;101791.91;5014253;28;45605;-80
2023/07/10 08:31:56;;;;;;;;;2.50;1.00;;;;;30.94;32.77;101783.09;5014268;28;45501;-77
2023/07/10 08:34:23;;;;;;;;;2.00;2.00;;;;;31.05;31.86;101793.78;5015972;28;46152;-78
2023/07/10 08:36:51;;;;;;;;;1.75;0.75;;;;;31.03;32.70;101788.41;5014857;28;45282;-78
2023/07/10 08:39:17;;;;;;;;;0.25;0.25;;;;;31.18;32.41;101786.66;5015236;28;45375;-78
2023/07/10 08:41:42;;;;;;;;;1.00;1.00;;;;;31.38;31.91;101789.88;5014979;28;45323;-78
2023/07/10 08:44:11;;;;;;;;;2.50;0.75;;;;;31.33;31.92;101792.28;5014125;28;45316;-77
2023/07/10 08:46:37;;;;;;;;;1.75;1.75;;;;;31.31;31.90;101794.38;5013433;28;45345;-77
2023/07/10 08:49:32;;;;;;;;;1.00;0.75;;;;;31.43;31.32;101792.94;5014186;28;45427;-77
2023/07/10 08:52:08;;;;;;;;;1.50;1.00;;;;;31.40;31.35;101797.97;5013561;28;45473;-78
2023/07/10 08:54:33;;;;;;;;;0.75;0.75;;;;;31.59;31.65;101797.53;5013377;28;46365;-78
2023/07/10 08:57:16;;;;;;;;;2.75;2.75;;;;;31.51;31.53;101790.13;5013675;28;45210;-77
2023/07/10 08:59:51;;;;;;;;;2.75;1.00;;;;;31.47;30.97;101804.53;4996291;28;45485;-77
2023/07/10 09:02:21;;;;;;;;;1.00;1.00;;;;;31.53;30.57;101793.59;5014264;28;45236;-74
2023/07/10 09:04:49;;;;;;;;;2.00;2.00;;;;;31.65;31.13;101790.41;5015026;28;46202;-81
2023/07/10 09:07:17;;;;;;;;;3.00;1.75;;;;;31.43;30.91;101792.94;4999590;28;45414;-79
2023/07/10 09:09:48;;;;;;;;;1.00;1.00;;;;;31.50;31.30;101788.41;5017253;28;45406;-81
2023/07/10 09:12:31;;;;;;;;;1.75;1.75;;;;;31.36;31.11;101785.53;5017565;28;45732;-77
2023/07/10 09:15:32;;;;;;;;;0.75;0.75;;;;;31.38;31.04;101780.69;5017295;28;46390;-78
2023/07/10 09:18:09;;;;;;;;;0.00;0.00;;;;;31.48;29.87;101784.06;5013536;28;45395;-79
2023/07/10 09:20:36;;;;;;;;;2.00;1.75;;;;;31.42;30.26;101782.91;5017369;28;45458;-78
2023/07/10 09:23:11;;;;;;;;;3.00;2.00;;;;;31.45;30.35;101790.00;5014723;28;45960;-75
2023/07/10 09:25:37;;;;;;;;;1.75;1.75;;;;;31.53;29.98;101770.53;5016719;28;46279;-76
2023/07/10 09:28:03;;;;;;;;;2.00;2.00;;;;;31.57;30.40;101792.16;5017134;28;45392;-73
2023/07/10 09:30:53;;;;;;;;;1.75;1.75;;;;;31.49;29.21;101794.13;5017215;28;45382;-74
2023/07/10 09:33:20;;;;;;;;;1.50;0.75;;;;;31.53;29.02;101798.25;5017434;28;45243;-75
2023/07/10 09:35:47;;;;;;;;;0.25;0.00;;;;;31.79;28.55;101782.19;5017043;28;45509;-75
2023/07/10 09:38:18;;;;;;;;;0.75;0.75;;;;;31.71;28.76;101782.25;5016865;28;45355;-75
2023/07/10 09:40:49;;;;;;;;;0.75;0.75;;;;;31.95;28.87;101782.06;5017183;28;45355;-74
2023/07/10 09:43:20;;;;;;;;;0.75;0.75;;;;;32.18;29.22;101772.91;5015328;28;45380;-76
2023/07/10 09:45:48;;;;;;;;;1.00;1.00;;;;;32.39;29.28;101781.38;5016023;28;45513;-74
2023/07/10 09:48:35;;;;;;;;;1.00;1.00;;;;;32.17;29.36;101763.69;5016418;28;45443;-75
2023/07/10 09:51:05;;;;;;;;;0.50;0.50;;;;;32.21;28.20;101772.53;5013203;28;45429;-75
2023/07/10 09:53:45;;;;;;;;;0.75;0.75;;;;;32.15;28.60;101776.03;5016314;28;45385;-75
2023/07/10 09:56:23;;;;;;;;;2.25;1.25;;;;;32.22;28.51;101780.69;5015141;28;45448;-76
2023/07/10 09:58:52;;;;;;;;;1.75;1.75;;;;;32.26;28.42;101767.28;5016701;28;45350;-75
2023/07/10 10:01:17;;;;;;;;;2.00;2.00;;;;;32.33;28.64;101772.97;5016394;28;45359;-77
2023/07/10 10:03:43;;;;;;;;;0.50;0.50;;;;;32.49;29.18;101778.34;5016695;28;45493;-75
2023/07/10 10:06:20;;;;;;;;;0.75;0.75;;;;;32.64;29.19;101780.09;5016379;28;45469;-75
2023/07/10 10:08:47;;;;;;;;;1.00;1.00;;;;;32.81;28.35;101771.59;5014515;28;45494;-75
2023/07/10 10:11:12;;;;;;;;;1.00;1.00;;;;;32.84;28.33;101779.53;5016116;28;45336;-76
2023/07/10 10:13:45;;;;;;;;;1.50;1.50;;;;;32.65;28.35;101756.81;5015668;28;45336;-75
2023/07/10 10:16:18;;;;;;;;;2.50;0.00;;;;;32.74;28.42;101784.53;5015428;28;45407;-76
2023/07/10 10:18:50;;;;;;;;;2.50;1.00;;;;;32.91;27.76;101769.41;5014399;28;45446;-74
2023/07/10 10:21:19;;;;;;;;;1.75;1.75;;;;;32.87;27.17;101785.59;5015642;28;45580;-76
2023/07/10 10:23:48;;;;;;;;;2.00;1.75;;;;;32.90;27.83;101771.34;4981924;28;45381;-78
2023/07/10 10:26:25;;;;;;;;;2.00;2.00;;;;;33.08;27.55;101778.41;5016240;28;45405;-75
2023/07/10 10:29:04;;;;;;;;;0.50;0.50;;;;;32.76;27.26;101765.75;5016063;28;45419;-75
2023/07/10 10:31:55;;;;;;;;;1.75;1.75;;;;;32.85;27.47;101775.72;4998139;28;45337;-77
2023/07/10 10:34:50;;;;;;;;;1.00;1.00;;;;;32.82;27.26;101760.31;4961769;28;45370;-74
2023/07/10 10:37:49;;;;;;;;;0.00;0.00;;;;;32.69;27.32;101769.28;5015682;28;45522;-76
2023/07/10 10:40:37;;;;;;;;;2.00;2.00;;;;;32.75;27.62;101764.06;5011395;28;45488;-73
2023/07/10 10:43:41;;;;;;;;;1.00;1.00;;;;;32.99;26.86;101759.06;5016162;28;45371;-75
2023/07/10 10:46:18;;;;;;;;;2.00;2.00;;;;;33.06;27.01;101764.72;5015781;28;45395;-75
2023/07/10 10:49:04;;;;;;;;;0.75;0.75;;;;;33.26;27.28;101760.28;5015798;28;46396;-75
2023/07/10 10:51:32;;;;;;;;;0.75;0.75;;;;;33.19;26.87;101766.78;5015937;28;45459;-75
2023/07/10 10:54:19;;;;;;;;;1.00;1.00;;;;;33.34;27.08;101762.97;5016207;28;45280;-76
2023/07/10 10:57:23;;;;;;;;;1.00;1.00;;;;;33.50;27.03;101761.03;5015666;28;45448;-77
2023/07/10 10:59:55;;;;;;;;;0.75;0.75;;;;;33.40;26.65;101755.78;4997464;28;45394;-75
2023/07/10 11:02:29;;;;;;;;;2.00;2.00;;;;;33.68;27.22;101751.19;5016052;28;45452;-72
2023/07/10 11:05:19;;;;;;;;;1.00;1.00;;;;;33.59;26.30;101759.84;5015915;28;45237;-73
2023/07/10 11:07:48;;;;;;;;;1.00;1.00;;;;;33.30;25.75;101761.63;5015273;28;45326;-75
2023/07/10 11:10:31;;;;;;;;;0.75;0.75;;;;;33.22;25.59;101758.09;5015525;28;45206;-75
2023/07/10 11:12:58;;;;;;;;;0.50;0.50;;;;;33.00;26.11;101748.81;5015622;28;45475;-75
2023/07/10 11:15:27;;;;;;;;;2.75;1.00;;;;;33.09;25.97;101749.56;5015970;28;45417;-76
2023/07/10 11:17:54;;;;;;;;;2.00;0.75;;;;;33.46;26.33;101746.63;5015443;28;45372;-75
2023/07/10 11:20:23;;;;;;;;;1.75;1.00;;;;;33.55;26.06;101742.69;5015752;28;45492;-75
2023/07/10 11:23:00;;;;;;;;;2.00;2.00;;;;;33.85;26.11;101740.69;5015399;28;45560;-72
2023/07/10 11:25:28;;;;;;;;;1.00;1.00;;;;;33.91;26.20;101734.31;5015936;28;45746;-76
2023/07/10 11:27:53;;;;;;;;;1.50;0.00;;;;;33.93;25.76;101726.66;5014105;28;45597;-73
2023/07/10 11:30:33;;;;;;;;;1.75;0.50;;;;;34.11;25.19;101729.78;5014972;28;45348;-76
2023/07/10 11:33:14;;;;;;;;;2.00;1.00;;;;;34.16;25.26;101730.06;5015575;28;45274;-74
2023/07/10 11:36:12;;;;;;;;;2.00;1.00;;;;;33.81;25.13;101728.22;5015578;28;45403;-72
2023/07/10 11:38:58;;;;;;;;;0.50;0.50;;;;;33.87;24.66;101721.00;5014956;28;45859;-71
2023/07/10 11:41:28;;;;;;;;;1.00;0.00;;;;;33.84;23.71;101719.50;5015549;28;46220;-72
2023/07/10 11:44:10;;;;;;;;;0.25;0.25;;;;;33.14;24.57;101720.13;5015070;28;46733;-71
2023/07/10 11:46:35;;;;;;;;;1.00;1.00;;;;;33.41;24.52;101713.00;5015050;28;45380;-74
2023/07/10 11:49:09;;;;;;;;;0.75;0.75;;;;;33.64;24.62;101707.25;5014941;28;45333;-72
2023/07/10 11:51:35;;;;;;;;;1.00;1.00;;;;;33.71;24.37;101706.25;5014731;28;45404;-72
2023/07/10 11:54:12;;;;;;;;;2.50;0.75;;;;;33.62;24.72;101703.81;5015594;28;45481;-77
2023/07/10 11:56:38;;;;;;;;;0.00;0.00;;;;;33.52;24.79;101703.31;5014982;28;45534;-72
2023/07/10 11:59:22;;;;;;;;;1.50;0.50;;;;;33.71;24.67;101703.47;5015071;28;45483;-72
2023/07/10 12:01:47;;;;;;;;;1.00;1.00;;;;;33.60;25.06;101694.81;5015415;28;46151;-76
2023/07/10 12:04:15;;;;;;;;;5.00;1.00;;;;;33.86;25.21;101703.44;5014457;28;45527;-73
2023/07/10 12:06:44;;;;;;;;;2.00;0.00;;;;;33.98;24.45;101703.78;5014541;28;45417;-73
2023/07/10 12:09:10;;;;;;;;;0.00;0.00;;;;;34.21;24.77;101696.03;4996953;28;46924;-74
2023/07/10 12:11:39;;;;;;;;;2.00;0.75;;;;;34.31;24.80;101699.34;5014802;28;50813;-76
2023/07/10 12:14:14;;;;;;;;;1.00;1.00;;;;;34.43;24.25;101688.53;5014419;28;45387;-73
2023/07/10 12:16:51;;;;;;;;;0.75;0.75;;;;;34.22;24.07;101703.31;5014624;28;45403;-73
2023/07/10 12:19:22;;;;;;;;;1.00;1.00;;;;;34.34;23.95;101698.97;5014575;28;45302;-75
2023/07/10 12:21:48;;;;;;;;;1.00;1.00;;;;;34.43;23.81;101694.09;5014618;28;46520;-75
2023/07/10 12:24:16;;;;;;;;;0.00;0.00;;;;;34.36;23.66;101688.50;4996682;28;45597;-74
2023/07/10 12:26:42;;;;;;;;;0.50;0.50;;;;;34.36;23.18;101687.63;5014426;28;45405;-75
2023/07/10 12:29:13;;;;;;;;;1.00;1.00;;;;;34.10;23.45;101685.47;4996269;28;47482;-75
2023/07/10 12:31:40;;;;;;;;;1.00;1.00;;;;;33.98;23.50;101681.50;5014366;28;45295;-75
2023/07/10 12:34:05;;;;;;;;;0.00;0.00;;;;;34.04;23.83;101675.13;5014312;28;45313;-73
2023/07/10 12:36:38;;;;;;;;;1.00;1.00;;;;;34.27;23.30;101677.72;5014559;28;45407;-74
2023/07/10 12:39:07;;;;;;;;;2.50;1.00;;;;;34.47;23.53;101673.97;5013767;28;45577;-73
2023/07/10 12:41:40;;;;;;;;;1.00;1.00;;;;;34.29;22.73;101679.22;5014357;28;46046;-74
2023/07/10 12:44:07;;;;;;;;;1.00;1.00;;;;;34.45;23.32;101672.47;5014558;28;45299;-73
2023/07/10 12:46:33;;;;;;;;;0.25;0.25;;;;;34.43;23.43;101669.03;5014357;28;45524;-73
2023/07/10 12:49:01;;;;;;;;;3.00;1.00;;;;;34.41;23.16;101663.66;5014338;28;45600;-75
2023/07/10 12:51:33;;;;;;;;;0.50;0.50;;;;;34.53;23.22;101669.53;5013732;28;45241;-74
2023/07/10 12:54:01;;;;;;;;;1.00;1.00;;;;;34.52;22.26;101667.81;5013649;28;45492;-74
2023/07/10 12:56:34;;;;;;;;;0.00;0.00;;;;;34.77;22.65;101666.28;5014106;28;45503;-73
2023/07/10 12:59:13;;;;;;;;;0.00;0.00;;;;;34.83;22.45;101659.84;5014295;28;45379;-76
2023/07/10 13:01:38;;;;;;;;;1.00;1.00;;;;;34.77;22.70;101655.13;5013967;28;45384;-73
2023/07/10 13:04:03;;;;;;;;;1.00;0.75;;;;;34.83;22.32;101661.78;5014367;28;45427;-74
2023/07/10 13:06:30;;;;;;;;;1.00;1.00;;;;;35.06;23.01;101655.84;5013647;28;45531;-75
2023/07/10 13:09:00;;;;;;;;;3.00;0.75;;;;;34.95;22.43;101659.28;5013353;28;47539;-74
2023/07/10 13:11:28;;;;;;;;;0.75;0.75;;;;;34.88;22.44;101635.00;5014289;28;46422;-73
2023/07/10 13:13:54;;;;;;;;;0.00;0.00;;;;;35.03;22.57;101651.59;5014193;28;45502;-72
2023/07/10 13:16:28;;;;;;;;;0.50;0.00;;;;;35.10;22.08;101660.81;5014072;28;45332;-75
2023/07/10 13:18:54;;;;;;;;;1.00;0.00;;;;;34.99;21.65;101643.84;4996255;28;45448;-73
2023/07/10 13:21:21;;;;;;;;;0.50;0.00;;;;;34.78;21.52;101645.69;5013584;28;45494;-75
2023/07/10 13:23:48;;;;;;;;;2.00;0.50;;;;;34.77;21.43;101646.75;5014261;28;45407;-74
2023/07/10 13:26:22;;;;;;;;;0.00;0.00;;;;;35.29;21.75;101639.69;5013949;28;45300;-73
2023/07/10 13:28:50;;;;;;;;;0.75;0.75;;;;;35.39;21.50;101642.91;5013541;28;45465;-74
2023/07/10 13:31:30;;;;;;;;;0.00;0.00;;;;;35.62;21.90;101642.53;5013706;28;46208;-75
2023/07/10 13:33:56;;;;;;;;;2.50;1.00;;;;;35.85;21.25;101642.13;5013576;28;45537;-74
2023/07/10 13:36:24;;;;;;;;;0.75;0.75;;;;;35.90;21.56;101631.19;5013853;28;45475;-74
2023/07/10 13:38:50;;;;;;;;;1.00;1.00;;;;;36.07;21.08;101628.81;5013897;28;45375;-74
2023/07/10 13:41:21;;;;;;;;;2.25;1.00;;;;;36.07;20.70;101620.44;5013507;28;47262;-75
2023/07/10 13:43:47;;;;;;;;;2.00;0.00;;;;;36.15;20.89;101625.81;5013381;28;45497;-75
2023/07/10 13:46:12;;;;;;;;;0.25;0.25;;;;;36.29;20.62;101617.19;4996087;28;45509;-76
2023/07/10 13:48:38;;;;;;;;;1.00;1.00;;;;;36.36;20.38;101617.19;5013664;28;45415;-77
2023/07/10 13:51:03;;;;;;;;;2.00;0.50;;;;;36.35;20.77;101619.13;4995543;28;46521;-78
2023/07/10 13:53:28;;;;;;;;;1.00;1.00;;;;;36.37;20.38;101614.19;5016770;28;45506;-79
2023/07/10 13:55:54;;;;;;;;;0.25;0.25;;;;;36.45;20.17;101620.59;5016991;28;45295;-77
2023/07/10 13:58:25;;;;;;;;;1.00;1.00;;;;;36.12;20.50;101606.69;5016561;28;45488;-77
2023/07/10 14:00:56;;;;;;;;;0.75;0.75;;;;;36.28;21.08;101603.44;4999330;28;46029;-77
2023/07/10 14:03:23;;;;;;;;;0.25;0.25;;;;;36.41;20.89;101614.56;5016104;28;45366;-74
2023/07/10 14:05:50;;;;;;;;;0.00;0.00;;;;;36.50;20.87;101609.59;5014784;28;45404;-72
2023/07/10 14:08:16;;;;;;;;;0.00;0.00;;;;;36.70;21.16;101602.03;5017031;28;45344;-77
2023/07/10 14:10:41;;;;;;;;;1.00;1.00;;;;;36.83;20.77;101595.56;4998275;28;46470;-73
2023/07/10 14:13:11;;;;;;;;;1.00;1.00;;;;;36.89;20.98;101600.25;5015963;28;45359;-74
2023/07/10 14:15:40;;;;;;;;;1.00;1.00;;;;;36.88;20.16;101599.38;5016494;28;45335;-73
2023/07/10 14:18:12;;;;;;;;;0.25;0.25;;;;;36.96;20.15;101593.53;5016482;28;45327;-74
2023/07/10 14:20:37;;;;;;;;;0.50;0.50;;;;;36.92;20.21;101595.06;4998821;28;46195;-73
2023/07/10 14:23:12;;;;;;;;;0.00;0.00;;;;;36.90;20.39;101588.84;5016335;28;47530;-74
2023/07/10 14:25:38;;;;;;;;;1.00;1.00;;;;;36.91;19.95;101584.97;5016390;28;45572;-73
2023/07/10 14:28:08;;;;;;;;;0.00;0.00;;;;;37.13;20.01;101577.09;5016087;28;45506;-73
2023/07/10 14:30:35;;;;;;;;;0.75;0.25;;;;;37.33;19.91;101577.00;5015882;28;45404;-73
2023/07/10 14:33:00;;;;;;;;;0.00;0.00;;;;;37.23;19.48;101562.66;5016670;28;45502;-74
2023/07/10 14:35:26;;;;;;;;;0.50;0.25;;;;;37.23;19.54;101565.44;5016450;28;45520;-75
2023/07/10 14:37:51;;;;;;;;;2.00;1.00;;;;;37.26;18.75;101563.03;5016251;28;45611;-74
2023/07/10 14:40:20;;;;;;;;;0.25;0.25;;;;;37.52;18.78;101561.97;5016142;28;45339;-74
2023/07/10 14:42:45;;;;;;;;;1.00;1.00;;;;;37.42;18.66;101556.91;5015989;28;45554;-74
2023/07/10 14:45:15;;;;;;;;;0.00;0.00;;;;;37.31;18.75;101570.75;5016009;28;45274;-73
2023/07/10 14:47:42;;;;;;;;;0.50;0.50;;;;;37.47;19.12;101557.06;5015817;28;45586;-73
2023/07/10 14:50:11;;;;;;;;;1.00;1.00;;;;;37.43;18.91;101554.97;5015641;28;45671;-74
2023/07/10 14:52:38;;;;;;;;;0.25;0.25;;;;;37.54;19.42;101557.00;5015778;28;45359;-73
2023/07/10 14:55:04;;;;;;;;;0.75;0.75;;;;;37.59;18.23;101545.16;5015899;28;45277;-74
2023/07/10 14:57:37;;;;;;;;;1.50;0.50;;;;;37.85;18.86;101540.19;5015352;28;45354;-74
2023/07/10 15:00:32;;;;;;;;;0.00;0.00;;;;;37.54;18.56;101547.75;5015604;28;45438;-74
2023/07/10 15:02:57;;;;;;;;;0.50;0.50;;;;;37.65;19.25;101533.06;5014974;28;45518;-74
2023/07/10 15:05:23;;;;;;;;;0.50;0.50;;;;;37.70;18.85;101542.47;5015892;28;45228;-75
2023/07/10 15:07:52;;;;;;;;;1.00;1.00;;;;;37.78;18.51;101536.56;5015465;28;45479;-72
2023/07/10 15:10:23;;;;;;;;;0.00;0.00;;;;;38.00;19.10;101531.41;5015879;28;45750;-75
2023/07/10 15:12:49;;;;;;;;;1.25;0.00;;;;;38.12;18.80;101523.97;4997185;28;45318;-74
2023/07/10 15:15:16;;;;;;;;;0.25;0.25;;;;;38.30;18.55;101519.44;5015706;28;45305;-74
2023/07/10 15:17:43;;;;;;;;;0.00;0.00;;;;;38.40;18.43;101515.00;5015260;28;45486;-73
2023/07/10 15:20:17;;;;;;;;;2.00;1.00;;;;;37.99;17.49;101498.88;5014832;28;46030;-74
2023/07/10 15:22:43;;;;;;;;;1.00;1.00;;;;;38.10;18.17;101512.16;5015287;28;45491;-73
2023/07/10 15:25:21;;;;;;;;;0.25;0.25;;;;;38.34;18.92;101501.09;5015520;28;45472;-74
2023/07/10 15:27:47;;;;;;;;;1.00;1.00;;;;;38.43;17.85;101511.75;5015125;28;45638;-73
2023/07/10 15:30:13;;;;;;;;;0.00;0.00;;;;;38.37;17.73;101515.47;5015295;28;45240;-73
2023/07/10 15:32:42;;;;;;;;;1.00;1.00;;;;;38.37;18.03;101506.19;4997143;28;45412;-74
2023/07/10 15:35:19;;;;;;;;;2.00;2.00;;;;;38.44;17.92;101509.78;5015480;28;45331;-72
2023/07/10 15:37:45;;;;;;;;;0.00;0.00;;;;;38.45;17.70;101501.13;5015181;28;45945;-74
2023/07/10 15:40:17;;;;;;;;;0.00;0.00;;;;;38.59;18.35;101490.66;5014716;28;45402;-74
2023/07/10 15:42:45;;;;;;;;;2.00;1.00;;;;;38.38;17.63;101491.09;5015269;28;45488;-73
2023/07/10 15:45:16;;;;;;;;;1.00;1.00;;;;;38.26;18.22;101484.59;5015046;28;45367;-73
2023/07/10 15:47:43;;;;;;;;;0.00;0.00;;;;;38.35;17.80;101484.06;5014981;28;45410;-73
2023/07/10 15:50:11;;;;;;;;;2.00;2.00;;;;;38.35;18.16;101480.38;5014687;28;45430;-73
2023/07/10 15:52:39;;;;;;;;;0.00;0.00;;;;;38.52;18.61;101479.53;5015060;28;45210;-73
2023/07/10 15:55:13;;;;;;;;;1.50;1.50;;;;;38.63;18.59;101488.19;5014834;28;45440;-73
2023/07/10 15:57:39;;;;;;;;;1.00;1.00;;;;;38.70;17.66;101480.56;5014572;28;45279;-73
2023/07/10 16:00:07;;;;;;;;;2.25;2.00;;;;;38.60;17.39;101478.34;5014514;28;46370;-73
2023/07/10 16:02:32;;;;;;;;;2.00;1.00;;;;;38.64;18.53;101464.69;5015205;28;45439;-73
2023/07/10 16:04:58;;;;;;;;;1.25;1.25;;;;;38.75;18.16;101455.47;5014644;28;45461;-74